Time;durP1;ratioP1;P1;durP2;ratioP2;P2;SDS_P1;SDS_P2;PMS_P1;PMS_P2;Temp;Humidity;BMP_temperature;BMP_pressure;BME280_temperature;BME280_humidity;BME280_pressure;Samples;Min_cycle;Max_cycle;Signal;HPM_P1;HPM_P2
2021/06/21 00:02:23;;;;;;;25.02;8.20;;;;;;;;;;5048382;28;20025;-66
2021/06/21 00:04:52;;;;;;;18.00;8.18;;;;;;;;;;5048756;28;20579;-66
2021/06/21 00:07:18;;;;;;;26.85;8.75;;;;;;;;;;5047503;28;20476;-67
2021/06/21 00:09:43;;;;;;;21.10;8.35;;;;;;;;;;5047895;28;20124;-65
2021/06/21 00:12:09;;;;;;;16.73;8.17;;;;;;;;;;5046446;28;20477;-66
2021/06/21 00:14:34;;;;;;;19.20;7.85;;;;;;;;;;5046820;28;20314;-66
2021/06/21 00:16:59;;;;;;;25.20;8.45;;;;;;;;;;5047356;28;20060;-66
2021/06/21 00:19:24;;;;;;;20.27;7.93;;;;;;;;;;5047452;28;20122;-66
2021/06/21 00:21:50;;;;;;;20.85;8.18;;;;;;;;;;5045654;28;20494;-65
2021/06/21 00:24:20;;;;;;;19.13;7.77;;;;;;;;;;5050855;28;20078;-66
2021/06/21 00:26:45;;;;;;;18.70;7.10;;;;;;;;;;5044146;28;20320;-66
2021/06/21 00:29:10;;;;;;;24.13;8.68;;;;;;;;;;5047491;28;20032;-66
2021/06/21 00:31:35;;;;;;;23.10;8.03;;;;;;;;;;5052673;28;20066;-67
2021/06/21 00:34:00;;;;;;;24.20;8.13;;;;;;;;;;5046299;28;21111;-67
2021/06/21 00:36:25;;;;;;;25.30;8.73;;;;;;;;;;5048422;28;20363;-65
2021/06/21 00:38:51;;;;;;;23.13;8.23;;;;;;;;;;5054029;28;20287;-66
2021/06/21 00:41:16;;;;;;;26.37;8.43;;;;;;;;;;5047612;28;20303;-66
2021/06/21 00:43:41;;;;;;;20.67;8.17;;;;;;;;;;5046873;28;20271;-66
2021/06/21 00:46:06;;;;;;;27.38;7.82;;;;;;;;;;5047275;28;20287;-66
2021/06/21 00:48:31;;;;;;;23.20;7.70;;;;;;;;;;5047933;28;20455;-66
2021/06/21 00:50:56;;;;;;;20.38;7.97;;;;;;;;;;5047587;28;20279;-67
2021/06/21 00:53:22;;;;;;;20.23;7.68;;;;;;;;;;5046982;28;20164;-67
2021/06/21 00:55:47;;;;;;;23.85;7.50;;;;;;;;;;5048220;28;20028;-66
2021/06/21 00:58:12;;;;;;;23.10;7.80;;;;;;;;;;5048531;28;20025;-66
2021/06/21 01:00:37;;;;;;;19.98;7.55;;;;;;;;;;5049053;28;20038;-66
2021/06/21 01:03:04;;;;;;;20.90;7.28;;;;;;;;;;5047999;28;20087;-66
2021/06/21 01:05:34;;;;;;;23.20;7.15;;;;;;;;;;5047609;28;20036;-67
2021/06/21 01:07:59;;;;;;;17.10;7.45;;;;;;;;;;5046120;28;20033;-66
2021/06/21 01:10:25;;;;;;;17.55;6.82;;;;;;;;;;5047901;28;20029;-65
2021/06/21 01:13:02;;;;;;;15.43;6.15;;;;;;;;;;5046977;28;20127;-66
2021/06/21 01:15:29;;;;;;;14.32;5.97;;;;;;;;;;5047287;28;20481;-66
2021/06/21 01:18:01;;;;;;;17.98;7.55;;;;;;;;;;5046084;28;20028;-66
2021/06/21 01:20:50;;;;;;;19.90;6.88;;;;;;;;;;5047147;28;20084;-66
2021/06/21 01:23:47;;;;;;;15.82;6.72;;;;;;;;;;5047115;28;20013;-67
2021/06/21 01:26:21;;;;;;;18.95;6.22;;;;;;;;;;5046173;28;20029;-67
2021/06/21 01:28:58;;;;;;;18.92;6.88;;;;;;;;;;5046545;28;20025;-68
2021/06/21 01:31:42;;;;;;;16.83;6.88;;;;;;;;;;5047396;28;20031;-66
2021/06/21 01:34:07;;;;;;;14.65;6.47;;;;;;;;;;5047215;28;20055;-67
2021/06/21 01:36:33;;;;;;;18.92;7.10;;;;;;;;;;5048540;28;20025;-66
2021/06/21 01:38:59;;;;;;;20.17;6.78;;;;;;;;;;5052088;28;20182;-66
2021/06/21 01:41:25;;;;;;;17.08;6.97;;;;;;;;;;5050900;28;20184;-66
2021/06/21 01:43:51;;;;;;;20.05;6.72;;;;;;;;;;5051115;28;20021;-66
2021/06/21 01:46:18;;;;;;;17.75;6.80;;;;;;;;;;5051123;28;20055;-66
2021/06/21 01:48:50;;;;;;;19.33;7.22;;;;;;;;;;5052881;28;20609;-67
2021/06/21 01:51:17;;;;;;;18.05;6.68;;;;;;;;;;5049120;28;20643;-66
2021/06/21 01:53:44;;;;;;;18.90;6.80;;;;;;;;;;5050342;28;20024;-66
2021/06/21 01:56:11;;;;;;;19.40;7.65;;;;;;;;;;5050362;28;20130;-66
2021/06/21 01:58:38;;;;;;;19.83;6.95;;;;;;;;;;5049722;28;20071;-66
2021/06/21 02:01:04;;;;;;;18.25;7.32;;;;;;;;;;5052189;28;20597;-67
2021/06/21 02:03:29;;;;;;;23.65;8.15;;;;;;;;;;5049969;28;20114;-67
2021/06/21 02:05:55;;;;;;;20.95;6.78;;;;;;;;;;5050576;28;20558;-67
2021/06/21 02:08:21;;;;;;;18.20;6.40;;;;;;;;;;5050531;28;20033;-67
2021/06/21 02:10:51;;;;;;;20.83;7.93;;;;;;;;;;5050826;28;20025;-66
2021/06/21 02:13:17;;;;;;;20.17;6.88;;;;;;;;;;5050026;28;20419;-65
2021/06/21 02:15:43;;;;;;;21.75;7.40;;;;;;;;;;5050822;28;20123;-68
2021/06/21 02:18:08;;;;;;;20.17;7.75;;;;;;;;;;5049604;28;20049;-66
2021/06/21 02:20:34;;;;;;;19.73;7.70;;;;;;;;;;5050500;28;20029;-66
2021/06/21 02:22:59;;;;;;;17.55;6.70;;;;;;;;;;5050143;28;20101;-67
2021/06/21 02:25:24;;;;;;;14.93;6.93;;;;;;;;;;5050148;28;20028;-67
2021/06/21 02:27:50;;;;;;;21.40;7.68;;;;;;;;;;5051329;28;20082;-66
2021/06/21 02:30:16;;;;;;;25.13;6.88;;;;;;;;;;5050225;28;20380;-66
2021/06/21 02:32:45;;;;;;;19.75;7.20;;;;;;;;;;5049454;28;20033;-66
2021/06/21 02:35:11;;;;;;;17.05;6.90;;;;;;;;;;5049887;28;20057;-66
2021/06/21 02:37:36;;;;;;;18.73;6.55;;;;;;;;;;5049415;28;20465;-66
2021/06/21 02:40:03;;;;;;;17.20;6.88;;;;;;;;;;5050293;28;20111;-66
2021/06/21 02:42:28;;;;;;;14.52;6.10;;;;;;;;;;5049781;28;20033;-66
2021/06/21 02:44:53;;;;;;;14.70;6.43;;;;;;;;;;5049175;28;20443;-66
2021/06/21 02:47:19;;;;;;;16.70;5.87;;;;;;;;;;5047976;28;20358;-66
2021/06/21 02:49:45;;;;;;;17.20;5.85;;;;;;;;;;5047269;28;20297;-66
2021/06/21 02:52:20;;;;;;;16.98;5.68;;;;;;;;;;5081745;28;20500;-66
2021/06/21 02:55:06;;;;;;;17.02;5.65;;;;;;;;;;5049508;28;20413;-66
2021/06/21 02:57:33;;;;;;;14.73;5.70;;;;;;;;;;5049905;28;20039;-67
2021/06/21 02:59:59;;;;;;;15.88;5.70;;;;;;;;;;5048132;28;20384;-65
2021/06/21 03:02:24;;;;;;;18.25;5.55;;;;;;;;;;5048602;28;20033;-66
2021/06/21 03:04:50;;;;;;;16.15;5.43;;;;;;;;;;5049402;28;20457;-66
2021/06/21 03:07:17;;;;;;;13.27;5.35;;;;;;;;;;5048331;28;20025;-66
2021/06/21 03:09:45;;;;;;;17.73;5.63;;;;;;;;;;5048954;28;20047;-66
2021/06/21 03:12:11;;;;;;;16.83;5.70;;;;;;;;;;5048932;28;20503;-66
2021/06/21 03:14:37;;;;;;;17.70;5.85;;;;;;;;;;5049502;28;20108;-66
2021/06/21 03:17:06;;;;;;;16.15;4.88;;;;;;;;;;5049136;28;20016;-66
2021/06/21 03:19:32;;;;;;;17.95;5.47;;;;;;;;;;5049207;28;20033;-66
2021/06/21 03:21:57;;;;;;;14.65;4.68;;;;;;;;;;5049084;28;20029;-67
2021/06/21 03:24:26;;;;;;;14.52;5.35;;;;;;;;;;5049312;28;20017;-67
2021/06/21 03:26:51;;;;;;;15.32;4.78;;;;;;;;;;5048433;28;20049;-65
2021/06/21 03:29:18;;;;;;;14.20;5.05;;;;;;;;;;5048488;28;20061;-66
2021/06/21 03:31:44;;;;;;;14.23;4.35;;;;;;;;;;5049115;28;20024;-66
2021/06/21 03:34:09;;;;;;;12.95;4.60;;;;;;;;;;5047994;28;20040;-66
2021/06/21 03:36:35;;;;;;;12.23;4.75;;;;;;;;;;5048184;28;20170;-67
2021/06/21 03:39:00;;;;;;;14.67;4.60;;;;;;;;;;5047266;28;20434;-67
2021/06/21 03:41:25;;;;;;;15.23;5.17;;;;;;;;;;5048282;28;20318;-66
2021/06/21 03:43:50;;;;;;;14.30;4.32;;;;;;;;;;5048412;28;20745;-66
2021/06/21 03:46:16;;;;;;;11.73;4.47;;;;;;;;;;5048741;28;20524;-66
2021/06/21 03:48:41;;;;;;;11.98;4.00;;;;;;;;;;5048336;28;20033;-65
2021/06/21 03:51:06;;;;;;;10.53;4.40;;;;;;;;;;5046076;28;20151;-67
2021/06/21 03:53:32;;;;;;;10.10;4.00;;;;;;;;;;5048438;28;20355;-65
2021/06/21 03:55:57;;;;;;;13.15;4.97;;;;;;;;;;5052608;28;20479;-65
2021/06/21 03:58:23;;;;;;;15.35;4.45;;;;;;;;;;5053003;28;20021;-65
2021/06/21 04:00:48;;;;;;;12.20;4.47;;;;;;;;;;5046898;28;20068;-67
2021/06/21 04:03:13;;;;;;;12.27;4.38;;;;;;;;;;5047159;28;20025;-66
2021/06/21 04:05:39;;;;;;;13.38;4.38;;;;;;;;;;5047636;28;20032;-66
2021/06/21 04:08:05;;;;;;;18.42;4.07;;;;;;;;;;5047919;28;20021;-65
2021/06/21 04:10:31;;;;;;;13.75;4.30;;;;;;;;;;5048163;28;20029;-66
2021/06/21 04:12:56;;;;;;;14.98;4.10;;;;;;;;;;5046222;28;20028;-66
2021/06/21 04:15:28;;;;;;;13.95;4.05;;;;;;;;;;5048162;28;20025;-66
2021/06/21 04:17:53;;;;;;;14.30;3.90;;;;;;;;;;5048034;28;20020;-66
2021/06/21 04:20:18;;;;;;;14.90;3.92;;;;;;;;;;5047832;28;20044;-66
2021/06/21 04:22:44;;;;;;;12.20;3.83;;;;;;;;;;5047559;28;20060;-66
2021/06/21 04:25:10;;;;;;;12.55;3.97;;;;;;;;;;5052636;28;20526;-67
2021/06/21 04:27:36;;;;;;;12.15;3.80;;;;;;;;;;5048397;28;20017;-67
2021/06/21 04:30:04;;;;;;;10.35;3.90;;;;;;;;;;5047936;28;20039;-66
2021/06/21 04:32:29;;;;;;;14.20;4.15;;;;;;;;;;5047650;28;20035;-67
2021/06/21 04:34:54;;;;;;;10.60;4.10;;;;;;;;;;5045762;28;21470;-66
2021/06/21 04:37:19;;;;;;;9.87;3.57;;;;;;;;;;5053884;28;20278;-66
2021/06/21 04:39:45;;;;;;;10.65;3.75;;;;;;;;;;5048064;28;20303;-68
2021/06/21 04:42:10;;;;;;;16.63;3.58;;;;;;;;;;5046889;28;20094;-66
2021/06/21 04:44:35;;;;;;;9.70;3.35;;;;;;;;;;5047708;28;20021;-67
2021/06/21 04:47:00;;;;;;;11.47;4.30;;;;;;;;;;5048835;28;20025;-67
2021/06/21 04:49:25;;;;;;;10.97;3.03;;;;;;;;;;5048659;28;20279;-68
2021/06/21 04:51:51;;;;;;;11.57;3.78;;;;;;;;;;5048063;28;20362;-67
2021/06/21 04:54:16;;;;;;;17.63;4.00;;;;;;;;;;5048594;28;20052;-68
2021/06/21 04:56:41;;;;;;;10.90;3.53;;;;;;;;;;5047525;28;20032;-69
2021/06/21 04:59:07;;;;;;;19.40;4.73;;;;;;;;;;5047761;28;20379;-67
2021/06/21 05:01:32;;;;;;;10.27;3.42;;;;;;;;;;5047019;28;20291;-69
2021/06/21 05:04:00;;;;;;;13.05;3.33;;;;;;;;;;5079338;28;20083;-67
2021/06/21 05:06:26;;;;;;;13.57;3.42;;;;;;;;;;5043736;28;20059;-67
2021/06/21 05:08:51;;;;;;;11.32;3.33;;;;;;;;;;5048655;28;20052;-67
2021/06/21 05:11:16;;;;;;;12.27;3.30;;;;;;;;;;5051115;28;20043;-68
2021/06/21 05:13:41;;;;;;;13.13;3.30;;;;;;;;;;5052666;28;20025;-68
2021/06/21 05:16:08;;;;;;;9.30;3.23;;;;;;;;;;5051387;28;20299;-68
2021/06/21 05:18:33;;;;;;;13.05;3.15;;;;;;;;;;5046185;28;20268;-68
2021/06/21 05:20:58;;;;;;;10.73;2.97;;;;;;;;;;5050210;28;20445;-68
2021/06/21 05:23:24;;;;;;;11.83;3.63;;;;;;;;;;5052311;28;20256;-68
2021/06/21 05:25:50;;;;;;;11.47;3.50;;;;;;;;;;5051518;28;20611;-67
2021/06/21 05:28:15;;;;;;;13.88;3.50;;;;;;;;;;5049831;28;20306;-67
2021/06/21 05:30:40;;;;;;;10.23;3.33;;;;;;;;;;5050909;28;20052;-68
2021/06/21 05:33:05;;;;;;;11.15;2.75;;;;;;;;;;5051519;28;20681;-70
2021/06/21 05:35:31;;;;;;;7.93;2.60;;;;;;;;;;5051318;28;20468;-71
2021/06/21 05:37:56;;;;;;;10.88;3.03;;;;;;;;;;5049827;28;20271;-70
2021/06/21 05:40:21;;;;;;;13.05;3.05;;;;;;;;;;5051380;28;20056;-70
2021/06/21 05:42:47;;;;;;;8.68;2.70;;;;;;;;;;5051418;28;20028;-68
2021/06/21 05:45:12;;;;;;;9.40;2.70;;;;;;;;;;5051660;28;20029;-67
2021/06/21 05:47:38;;;;;;;12.30;2.63;;;;;;;;;;5050618;28;20020;-68
2021/06/21 05:50:03;;;;;;;6.90;2.22;;;;;;;;;;5050491;28;20016;-67
2021/06/21 05:52:28;;;;;;;13.35;2.75;;;;;;;;;;5050702;28;20024;-66
2021/06/21 05:54:59;;;;;;;10.40;2.97;;;;;;;;;;5050922;28;20547;-68
2021/06/21 05:57:28;;;;;;;14.38;3.00;;;;;;;;;;5051525;28;20270;-69
2021/06/21 05:59:53;;;;;;;13.57;2.43;;;;;;;;;;5050673;28;20376;-69
2021/06/21 06:02:19;;;;;;;11.07;2.63;;;;;;;;;;5051131;28;20075;-69
2021/06/21 06:04:44;;;;;;;9.98;2.38;;;;;;;;;;5050378;28;20365;-69
2021/06/21 06:07:09;;;;;;;8.52;2.22;;;;;;;;;;5048663;28;20481;-69
2021/06/21 06:09:34;;;;;;;6.65;2.17;;;;;;;;;;5049006;28;20595;-67
2021/06/21 06:12:00;;;;;;;7.35;2.05;;;;;;;;;;5048100;28;20029;-68
2021/06/21 06:14:25;;;;;;;7.72;2.30;;;;;;;;;;5050585;28;20033;-67
2021/06/21 06:16:50;;;;;;;17.50;2.27;;;;;;;;;;5051003;28;20017;-67
2021/06/21 06:19:15;;;;;;;9.10;2.20;;;;;;;;;;5051050;28;20268;-66
2021/06/21 06:21:42;;;;;;;8.68;2.50;;;;;;;;;;5049738;28;20490;-66
2021/06/21 06:24:07;;;;;;;11.25;2.85;;;;;;;;;;5050920;28;20017;-66
2021/06/21 06:26:33;;;;;;;7.47;2.05;;;;;;;;;;5051853;28;20029;-66
2021/06/21 06:28:58;;;;;;;11.43;2.30;;;;;;;;;;5051283;28;20377;-68
2021/06/21 06:31:23;;;;;;;8.77;2.57;;;;;;;;;;5050970;28;20025;-66
2021/06/21 06:33:49;;;;;;;7.53;1.90;;;;;;;;;;5051152;28;20279;-67
2021/06/21 06:36:14;;;;;;;9.57;2.47;;;;;;;;;;5050700;28;20029;-66
2021/06/21 06:38:39;;;;;;;11.70;2.30;;;;;;;;;;5050781;28;20020;-67
2021/06/21 06:41:05;;;;;;;11.77;2.05;;;;;;;;;;5050693;28;20292;-66
2021/06/21 06:43:30;;;;;;;12.77;2.20;;;;;;;;;;5051116;28;20025;-67
2021/06/21 06:45:56;;;;;;;12.05;2.58;;;;;;;;;;5050581;28;20519;-67
2021/06/21 06:48:21;;;;;;;7.95;2.15;;;;;;;;;;5050996;28;20051;-66
2021/06/21 06:50:46;;;;;;;5.30;1.73;;;;;;;;;;5050781;28;20520;-66
2021/06/21 06:53:11;;;;;;;9.13;2.00;;;;;;;;;;5051016;28;20347;-67
2021/06/21 06:58:21;;;;;;;7.88;1.73;;;;;;;;;;5050587;28;20047;-67
2021/06/21 07:00:46;;;;;;;11.25;1.73;;;;;;;;;;5050696;28;20032;-68
2021/06/21 07:03:11;;;;;;;9.00;2.60;;;;;;;;;;5050735;28;20017;-67
2021/06/21 07:05:36;;;;;;;10.27;1.90;;;;;;;;;;5050642;28;20339;-68
2021/06/21 07:08:02;;;;;;;7.38;1.95;;;;;;;;;;5050171;28;20025;-66
2021/06/21 07:10:27;;;;;;;12.10;2.28;;;;;;;;;;5050771;28;20125;-66
2021/06/21 07:12:53;;;;;;;8.38;1.67;;;;;;;;;;5050339;28;20105;-67
2021/06/21 07:15:18;;;;;;;8.13;1.88;;;;;;;;;;5050535;28;20145;-67
2021/06/21 07:17:44;;;;;;;4.50;1.73;;;;;;;;;;5050312;28;20017;-67
2021/06/21 07:20:09;;;;;;;7.15;1.80;;;;;;;;;;5041585;28;20040;-67
2021/06/21 07:22:34;;;;;;;11.35;2.08;;;;;;;;;;5050063;28;20040;-67
2021/06/21 07:25:00;;;;;;;11.40;1.90;;;;;;;;;;5051753;28;20485;-67
2021/06/21 07:27:26;;;;;;;9.70;1.88;;;;;;;;;;5054454;28;20274;-66
2021/06/21 07:29:51;;;;;;;9.23;2.00;;;;;;;;;;5050447;28;20427;-66
2021/06/21 07:32:17;;;;;;;5.75;1.70;;;;;;;;;;5049801;28;20071;-66
2021/06/21 07:34:43;;;;;;;7.55;1.85;;;;;;;;;;5050007;28;20506;-66
2021/06/21 07:37:08;;;;;;;9.70;1.83;;;;;;;;;;5049713;28;20383;-67
2021/06/21 07:39:33;;;;;;;8.85;1.85;;;;;;;;;;5049846;28;20024;-66
2021/06/21 07:41:58;;;;;;;9.65;1.58;;;;;;;;;;5049989;28;20021;-66
2021/06/21 07:44:23;;;;;;;10.50;1.67;;;;;;;;;;5050241;28;20013;-67
2021/06/21 07:46:49;;;;;;;6.65;1.83;;;;;;;;;;5049587;28;20885;-66
2021/06/21 07:49:14;;;;;;;9.98;2.22;;;;;;;;;;5049619;28;20021;-68
2021/06/21 07:51:40;;;;;;;10.97;2.40;;;;;;;;;;5047548;28;20461;-66
2021/06/21 07:54:06;;;;;;;8.13;1.77;;;;;;;;;;5055952;28;20316;-67
2021/06/21 07:56:31;;;;;;;9.82;2.00;;;;;;;;;;5053401;28;20112;-67
2021/06/21 07:58:56;;;;;;;19.90;1.90;;;;;;;;;;5049071;28;20899;-65
2021/06/21 08:01:22;;;;;;;11.50;1.80;;;;;;;;;;5048124;28;20097;-67
2021/06/21 08:03:47;;;;;;;6.72;2.47;;;;;;;;;;5049603;28;20259;-67
2021/06/21 08:06:12;;;;;;;5.03;1.45;;;;;;;;;;5049772;28;20025;-66
2021/06/21 08:08:38;;;;;;;8.23;1.58;;;;;;;;;;5049245;28;20445;-66
2021/06/21 08:11:04;;;;;;;6.80;1.70;;;;;;;;;;5049056;28;20431;-66
2021/06/21 08:13:30;;;;;;;7.32;1.70;;;;;;;;;;5049272;28;20017;-67
2021/06/21 08:15:55;;;;;;;7.60;1.75;;;;;;;;;;5049553;28;20021;-66
2021/06/21 08:18:20;;;;;;;11.30;1.70;;;;;;;;;;5049291;28;20025;-67
2021/06/21 08:20:45;;;;;;;10.17;1.73;;;;;;;;;;5048584;28;20813;-66
2021/06/21 08:23:11;;;;;;;10.48;1.83;;;;;;;;;;5049018;28;20255;-66
2021/06/21 08:25:37;;;;;;;9.70;1.92;;;;;;;;;;5049999;28;20024;-66
2021/06/21 08:28:02;;;;;;;8.63;1.63;;;;;;;;;;5049153;28;20075;-67
2021/06/21 08:30:28;;;;;;;6.90;1.80;;;;;;;;;;5049038;28;20470;-66
2021/06/21 08:32:53;;;;;;;7.83;1.57;;;;;;;;;;5046341;28;20078;-66
2021/06/21 08:35:18;;;;;;;7.63;1.70;;;;;;;;;;5046257;28;20310;-66
2021/06/21 08:37:43;;;;;;;7.25;1.40;;;;;;;;;;5048731;28;20032;-66
2021/06/21 08:40:09;;;;;;;3.38;1.02;;;;;;;;;;5048673;28;20100;-67
2021/06/21 08:42:35;;;;;;;9.10;1.90;;;;;;;;;;5046950;28;20016;-68
2021/06/21 08:45:01;;;;;;;8.23;1.65;;;;;;;;;;5047785;28;20866;-67
2021/06/21 08:47:28;;;;;;;9.10;2.03;;;;;;;;;;5048904;28;20024;-66
2021/06/21 08:49:54;;;;;;;9.25;1.38;;;;;;;;;;5048766;28;20025;-68
2021/06/21 08:52:19;;;;;;;5.43;1.40;;;;;;;;;;5049069;28;20510;-67
2021/06/21 08:54:44;;;;;;;7.47;1.30;;;;;;;;;;5048410;28;20066;-67
2021/06/21 08:57:10;;;;;;;6.40;1.33;;;;;;;;;;5053859;28;20468;-66
2021/06/21 08:59:37;;;;;;;6.38;1.23;;;;;;;;;;5048259;28;20021;-67
2021/06/21 09:02:02;;;;;;;9.80;2.08;;;;;;;;;;5048982;28;20116;-67
2021/06/21 09:04:28;;;;;;;6.63;1.17;;;;;;;;;;5048497;28;20025;-67
2021/06/21 09:07:12;;;;;;;6.93;1.35;;;;;;;;;;5048373;28;20017;-67
2021/06/21 09:09:38;;;;;;;9.07;1.73;;;;;;;;;;5048568;28;20021;-67
2021/06/21 09:12:03;;;;;;;8.65;1.50;;;;;;;;;;5048248;28;20384;-67
2021/06/21 09:14:30;;;;;;;6.40;1.50;;;;;;;;;;5048362;28;20388;-67
2021/06/21 09:16:55;;;;;;;7.05;1.30;;;;;;;;;;5048291;28;20550;-67
2021/06/21 09:19:20;;;;;;;6.20;1.50;;;;;;;;;;5048645;28;20021;-66
2021/06/21 09:21:45;;;;;;;8.13;1.50;;;;;;;;;;5048327;28;20553;-66
2021/06/21 09:24:27;;;;;;;8.40;1.45;;;;;;;;;;5048070;28;20049;-66
2021/06/21 09:26:56;;;;;;;8.25;1.60;;;;;;;;;;5050585;28;20028;-65
2021/06/21 09:29:35;;;;;;;8.52;1.50;;;;;;;;;;5048354;28;20021;-67
2021/06/21 09:32:00;;;;;;;8.07;1.92;;;;;;;;;;5044859;28;20033;-67
2021/06/21 09:34:26;;;;;;;6.67;1.30;;;;;;;;;;5043710;28;20076;-66
2021/06/21 09:36:52;;;;;;;5.63;1.52;;;;;;;;;;5047910;28;20264;-67
2021/06/21 09:39:18;;;;;;;6.43;1.50;;;;;;;;;;5048291;28;20353;-67
2021/06/21 09:41:44;;;;;;;4.80;1.77;;;;;;;;;;5047911;28;20541;-66
2021/06/21 09:44:29;;;;;;;6.80;1.65;;;;;;;;;;5048095;28;20314;-67
2021/06/21 09:47:09;;;;;;;5.22;1.63;;;;;;;;;;5048113;28;20365;-67
2021/06/21 09:49:34;;;;;;;7.18;1.33;;;;;;;;;;5054416;28;20033;-67
2021/06/21 09:51:59;;;;;;;9.05;1.70;;;;;;;;;;5046668;28;20028;-67
2021/06/21 09:54:24;;;;;;;8.27;1.50;;;;;;;;;;5048207;28;20102;-65
2021/06/21 09:56:51;;;;;;;9.50;1.90;;;;;;;;;;5050157;28;20823;-66
2021/06/21 09:59:20;;;;;;;7.57;1.75;;;;;;;;;;5051511;28;20792;-66
2021/06/21 10:01:59;;;;;;;8.68;1.58;;;;;;;;;;5051746;28;20043;-67
2021/06/21 10:04:24;;;;;;;7.70;1.88;;;;;;;;;;5051718;28;20096;-67
2021/06/21 10:06:50;;;;;;;8.48;1.73;;;;;;;;;;5051433;28;20136;-66
2021/06/21 10:09:15;;;;;;;6.63;1.60;;;;;;;;;;5051572;28;20075;-66
2021/06/21 10:11:43;;;;;;;9.57;2.20;;;;;;;;;;5051602;28;20099;-66
2021/06/21 10:14:12;;;;;;;7.32;1.83;;;;;;;;;;5051483;28;20275;-66
2021/06/21 10:16:37;;;;;;;;;;;;;;;;;;5051762;28;20472;-66
2021/06/21 10:19:04;;;;;;;10.32;1.80;;;;;;;;;;5051296;28;20649;-66
2021/06/21 10:21:29;;;;;;;10.65;2.10;;;;;;;;;;5051294;28;20032;-66
2021/06/21 10:23:55;;;;;;;8.25;2.20;;;;;;;;;;5051500;28;20035;-66
2021/06/21 10:26:20;;;;;;;8.02;1.95;;;;;;;;;;5055618;28;20037;-66
2021/06/21 10:28:46;;;;;;;8.93;2.10;;;;;;;;;;5050985;28;20107;-66
2021/06/21 10:31:12;;;;;;;8.23;2.00;;;;;;;;;;5053282;28;20075;-67
2021/06/21 10:33:37;;;;;;;6.88;1.73;;;;;;;;;;5050810;28;20131;-65
2021/06/21 10:36:04;;;;;;;9.02;2.15;;;;;;;;;;5051142;28;20048;-66
2021/06/21 10:38:29;;;;;;;8.85;2.03;;;;;;;;;;5050825;28;20098;-67
2021/06/21 10:40:56;;;;;;;5.65;1.55;;;;;;;;;;5050728;28;20041;-67
2021/06/21 10:43:40;;;;;;;11.18;1.85;;;;;;;;;;5050862;28;20096;-67
2021/06/21 10:46:14;;;;;;;8.32;1.52;;;;;;;;;;5051256;28;20024;-66
2021/06/21 10:48:59;;;;;;;11.80;1.85;;;;;;;;;;5050566;28;20063;-68
2021/06/21 10:51:30;;;;;;;9.27;1.50;;;;;;;;;;5051314;28;20028;-67
2021/06/21 10:53:56;;;;;;;8.00;2.10;;;;;;;;;;5050567;28;20353;-66
2021/06/21 10:56:40;;;;;;;7.50;1.70;;;;;;;;;;5059010;28;20100;-68
2021/06/21 10:59:12;;;;;;;5.90;1.40;;;;;;;;;;5050407;28;20021;-66
2021/06/21 11:01:47;;;;;;;6.38;1.98;;;;;;;;;;5044576;28;20033;-66
2021/06/21 11:04:31;;;;;;;5.78;1.60;;;;;;;;;;5045601;28;20017;-66
2021/06/21 11:07:08;;;;;;;6.28;1.67;;;;;;;;;;5049877;28;20020;-66
2021/06/21 11:09:40;;;;;;;9.05;1.92;;;;;;;;;;5050035;28;20024;-67
2021/06/21 11:12:26;;;;;;;5.85;1.60;;;;;;;;;;5050577;28;20358;-67
2021/06/21 11:15:07;;;;;;;8.07;2.00;;;;;;;;;;5050327;28;20092;-67
2021/06/21 11:17:42;;;;;;;5.50;2.05;;;;;;;;;;5050616;28;20025;-67
2021/06/21 11:20:26;;;;;;;6.97;1.60;;;;;;;;;;5050443;28;20028;-67
2021/06/21 11:22:54;;;;;;;7.00;1.88;;;;;;;;;;5050263;28;20025;-66
2021/06/21 11:25:23;;;;;;;8.13;1.70;;;;;;;;;;5054626;28;20507;-67
2021/06/21 11:27:49;;;;;;;7.38;1.38;;;;;;;;;;5051705;28;20480;-67
2021/06/21 11:30:21;;;;;;;12.23;1.95;;;;;;;;;;5049730;28;20108;-68
2021/06/21 11:32:54;;;;;;;5.88;1.60;;;;;;;;;;5050448;28;20013;-67
2021/06/21 11:35:39;;;;;;;7.90;2.03;;;;;;;;;;5050179;28;20511;-66
2021/06/21 11:38:23;;;;;;;6.13;1.70;;;;;;;;;;5049251;28;20017;-67
2021/06/21 11:41:08;;;;;;;6.63;1.63;;;;;;;;;;5040657;28;20427;-67
2021/06/21 11:43:47;;;;;;;6.57;2.05;;;;;;;;;;5048997;28;20400;-68
2021/06/21 11:46:33;;;;;;;6.20;1.93;;;;;;;;;;5045440;28;20024;-67
2021/06/21 11:49:09;;;;;;;8.57;2.00;;;;;;;;;;5044522;28;20026;-67
2021/06/21 11:51:34;;;;;;;7.65;2.03;;;;;;;;;;5046977;28;20033;-67
2021/06/21 11:54:01;;;;;;;8.98;1.58;;;;;;;;;;5045858;28;20013;-66
2021/06/21 11:56:26;;;;;;;13.60;1.90;;;;;;;;;;5048625;28;20103;-66
2021/06/21 11:58:53;;;;;;;11.77;1.80;;;;;;;;;;5049023;28;20170;-67
2021/06/21 12:01:19;;;;;;;9.63;1.65;;;;;;;;;;5045291;28;20482;-67
2021/06/21 12:03:45;;;;;;;4.82;1.77;;;;;;;;;;5047078;28;20596;-68
2021/06/21 12:06:14;;;;;;;9.15;1.92;;;;;;;;;;5048640;28;20025;-66
2021/06/21 12:08:39;;;;;;;7.80;1.70;;;;;;;;;;5048863;28;20036;-67
2021/06/21 12:11:14;;;;;;;9.00;2.13;;;;;;;;;;5046929;28;20021;-67
2021/06/21 12:13:40;;;;;;;10.77;1.90;;;;;;;;;;5049262;28;20480;-67
2021/06/21 12:16:09;;;;;;;6.70;2.25;;;;;;;;;;5048829;28;20016;-68
2021/06/21 12:18:34;;;;;;;8.68;1.83;;;;;;;;;;5047245;28;20033;-67
2021/06/21 12:20:59;;;;;;;9.55;1.98;;;;;;;;;;5047492;28;20045;-67
2021/06/21 12:23:27;;;;;;;8.90;1.63;;;;;;;;;;5044543;28;20837;-66
2021/06/21 12:25:52;;;;;;;8.07;1.80;;;;;;;;;;5047887;28;20417;-67
2021/06/21 12:28:20;;;;;;;9.48;1.92;;;;;;;;;;5046961;28;20109;-67
2021/06/21 12:30:50;;;;;;;9.55;1.63;;;;;;;;;;5043363;28;20380;-67
2021/06/21 12:33:15;;;;;;;;;;;;;;;;;;5049375;28;20033;-66
2021/06/21 12:35:40;;;;;;;5.40;1.48;;;;;;;;;;5047096;28;19969;-67
2021/06/21 12:38:13;;;;;;;7.65;1.98;;;;;;;;;;5048392;28;20376;-66
2021/06/21 12:40:38;;;;;;;7.20;2.20;;;;;;;;;;5047639;28;20041;-66
2021/06/21 12:43:08;;;;;;;7.87;1.67;;;;;;;;;;5048353;28;20091;-67
2021/06/21 12:45:36;;;;;;;8.32;1.95;;;;;;;;;;5047225;28;20301;-67
2021/06/21 12:48:01;;;;;;;5.60;1.70;;;;;;;;;;5048510;28;20090;-67
2021/06/21 12:50:27;;;;;;;10.03;1.83;;;;;;;;;;5047575;28;20095;-68
2021/06/21 12:52:53;;;;;;;8.73;1.85;;;;;;;;;;5042552;28;20031;-66
2021/06/21 12:55:28;;;;;;;8.50;2.13;;;;;;;;;;5050678;28;20039;-66
2021/06/21 12:57:59;;;;;;;7.15;1.80;;;;;;;;;;5045575;28;20411;-66
2021/06/21 13:00:53;;;;;;;5.63;1.60;;;;;;;;;;5045993;28;20029;-66
2021/06/21 13:03:20;;;;;;;5.57;1.60;;;;;;;;;;5002579;28;20025;-63
2021/06/21 13:05:45;;;;;;;6.25;1.35;;;;;;;;;;5005258;28;20030;-63
2021/06/21 13:08:11;;;;;;;6.93;2.00;;;;;;;;;;5003981;28;20076;-67
2021/06/21 13:10:36;;;;;;;6.57;1.95;;;;;;;;;;5006144;28;20789;-66
2021/06/21 13:13:04;;;;;;;5.13;1.55;;;;;;;;;;5005575;28;20082;-66
2021/06/21 13:15:39;;;;;;;7.15;1.95;;;;;;;;;;5004839;28;20025;-66
2021/06/21 13:18:04;;;;;;;10.80;2.35;;;;;;;;;;5002802;28;20030;-66
2021/06/21 13:20:29;;;;;;;7.00;1.60;;;;;;;;;;5005551;28;20045;-66
2021/06/21 13:22:56;;;;;;;11.33;1.93;;;;;;;;;;5003126;28;20028;-66
2021/06/21 13:25:23;;;;;;;7.60;1.70;;;;;;;;;;5004986;28;20450;-67
2021/06/21 13:27:57;;;;;;;10.77;1.63;;;;;;;;;;5004957;28;20025;-65
2021/06/21 13:30:25;;;;;;;6.35;1.60;;;;;;;;;;5003809;28;20091;-67
2021/06/21 13:32:50;;;;;;;7.63;2.20;;;;;;;;;;4991648;28;20045;-66
2021/06/21 13:35:18;;;;;;;8.38;1.75;;;;;;;;;;5009194;28;20469;-66
2021/06/21 13:37:43;;;;;;;7.80;1.70;;;;;;;;;;5007843;28;20034;-66
2021/06/21 13:40:10;;;;;;;11.10;2.63;;;;;;;;;;5032366;28;20056;-66
2021/06/21 13:42:40;;;;;;;4.53;1.67;;;;;;;;;;5050864;28;20139;-67
2021/06/21 13:45:05;;;;;;;;;;;;;;;;;;5052380;28;20930;-66
2021/06/21 13:47:33;;;;;;;10.23;1.85;;;;;;;;;;5050195;28;20011;-67
2021/06/21 13:49:58;;;;;;;6.28;1.77;;;;;;;;;;5049937;28;20487;-66
2021/06/21 13:52:34;;;;;;;9.68;2.08;;;;;;;;;;5051185;28;20029;-66
2021/06/21 13:54:59;;;;;;;9.90;1.88;;;;;;;;;;5048328;28;20501;-66
2021/06/21 13:57:34;;;;;;;8.47;2.20;;;;;;;;;;5051226;28;20029;-66
2021/06/21 13:59:59;;;;;;;8.40;1.80;;;;;;;;;;5050287;28;20798;-67
2021/06/21 14:02:31;;;;;;;7.33;1.80;;;;;;;;;;5050384;28;20029;-65
2021/06/21 14:04:56;;;;;;;8.90;1.73;;;;;;;;;;5049370;28;20350;-66
2021/06/21 14:07:21;;;;;;;5.77;1.77;;;;;;;;;;5048587;28;20166;-66
2021/06/21 14:09:54;;;;;;;8.48;1.98;;;;;;;;;;5050182;28;20032;-67
2021/06/21 14:12:19;;;;;;;8.35;2.03;;;;;;;;;;5051102;28;20373;-67
2021/06/21 14:14:44;;;;;;;8.43;1.97;;;;;;;;;;5051090;28;20029;-67
2021/06/21 14:17:10;;;;;;;6.10;1.58;;;;;;;;;;5051581;28;20272;-68
2021/06/21 14:19:35;;;;;;;6.97;1.95;;;;;;;;;;5050975;28;20116;-67
2021/06/21 14:22:00;;;;;;;9.50;2.30;;;;;;;;;;5051031;28;20029;-67
2021/06/21 14:24:26;;;;;;;6.57;2.00;;;;;;;;;;5050269;28;20435;-67
2021/06/21 14:26:53;;;;;;;11.73;2.55;;;;;;;;;;5054165;28;20263;-68
2021/06/21 14:29:18;;;;;;;11.65;2.00;;;;;;;;;;5051038;28;20013;-68
2021/06/21 14:31:43;;;;;;;7.07;1.80;;;;;;;;;;5049248;28;20033;-68
2021/06/21 14:34:08;;;;;;;9.57;2.50;;;;;;;;;;5050790;28;20049;-68
2021/06/21 14:36:34;;;;;;;10.90;1.90;;;;;;;;;;5050461;28;20029;-68
2021/06/21 14:38:59;;;;;;;7.90;2.45;;;;;;;;;;5050697;28;20097;-67
2021/06/21 14:41:24;;;;;;;10.07;2.10;;;;;;;;;;5050135;28;20041;-67
2021/06/21 14:43:50;;;;;;;11.82;1.95;;;;;;;;;;5047836;28;20275;-70